Skip Navigation Links
NOAA logo - Click to go to the NOAA homepage
NOAA's National Weather Service
Alaska Aviation Weather Unit
  NWS logo - Click to go to the NWS homepage
Left Navbar Graphic     02 AKDT = 10 GMT

   
NOAA is celebrating 200 years of science, service, and stewardship. Visit the NOAA 200th celebration Web site to learn more.
USA.gov is the U.S. Government's official Web portal to all Federal, state and local government Web resources and services.
Facebook
NWS on Facebook

Important Change Regarding the AAWU Web Presence

 

Over the last several months, the AAWU has been working to navigate its webpages to a nationally supported server. Security, as well as other needs, have necessitated the change.  In the process, we have made an effort to enhance the functionality of our website, as well as some of our products. As of June 27, 2017, aawu.arh.noaa.gov will be discontinued. The new AAWU web address is weather.gov/aawu. It is now live and will run in-parallel with the old site until it is discontinued. Please send any feedback or questions regarding the new webpages to nws.ar.aawu.webauthors@noaa.gov.  Thank you for your patience during this time of transition.
AAWU Home :: Display TAF Add Bookmark
TAF PAYA 251006Z 2510/2606 VRB03KT P6SM OVC070
     FM251800 26006KT P6SM BKN060 OVC080
     FM260000 26006KT P6SM SCT015 BKN030 OVC050
      AMD LTD TO CLD VIS AND WIND=
METAR PAYA 250453Z AUTO 00000KT 10SM OVC065 12/11 A3006 RMK AO2 SLP180
     T01220106 TSNO=

METAR PAYA 250553Z AUTO 36003KT 10SM OVC060 12/11 A3006 RMK AO2
 SLP179 60000 T01220106 10144 20122 56006 TSNO=

METAR PAYA 250653Z AUTO 00000KT 10SM OVC065 12/11 A3006 RMK AO2 SLP179
     T01170111 TSNO=

METAR PAYA 250753Z AUTO 00000KT 10SM OVC070 12/11 A3005 RMK AO2 SLP176
     T01170106 TSNO=

METAR PAYA 250853Z AUTO 00000KT 10SM OVC070 11/10 A3004 RMK AO2 SLP172
     T01110100 401440050 58006 TSNO=

METAR PAYA 250953Z AUTO 25003KT 10SM OVC070 11/10 A3003 RMK AO2 SLP169
     T01110100 TSNO=


NOAA's National Weather Service
Alaska Aviation Weather Unit
6930 Sand Lake Road
Anchorage, AK 99502-1845
Disclaimer
Credits
Glossary
Privacy Policy
About Us
Career Opportunities
Contact AAWU Internet Services Site last modified: April, 17th 2012